Meteo Giornale » Osservazioni meteo Italia » Venezia-Tessera

ore: 17:20 - Osservazioni Meteo Venezia-Tessera
Lat. 45° 30' N Lon. 12° 20' E Alt. 2 metri s.l.m.

coperto_pioggia Europe/Rome

11 °C

Pioggia Debole

Temp. 24 Ore

10 °C

17 °C

Est

22.2 Km/h

Dew point 7 °C

Umidità 76 %

Visibilità  8 Km

Il sole sorge alle ore 05:59

Il sole tramonta alle ore 18:32

Data e Ora Cielo e Fenomeni T °C DP °C Um. % Pres. hPa Vis. km Vento km/h
Oggi h: 17:20 coperto_pioggia Pioggia Debole 11 7 76 1019 8 E 22.2
Oggi h: 16:50 molto_nuvoloso Molto Nuvoloso 11 9 87 1018 6 E 25.9
Oggi h: 16:20 coperto_pioggia Pioggia 12 10 87 1018 7 E 29.6
Oggi h: 15:50 molto_nuvoloso Molto Nuvoloso 13 8 71 1017 10 E/NE 38.8
Oggi h: 15:20 molto_nuvoloso Molto Nuvoloso 13 11 87 1017 10 E 27.8
Oggi h: 14:50 molto_nuvoloso Molto Nuvoloso 14 11 82 1017 10 E/SE 16.7
Oggi h: 14:20 coperto_pioggia Pioggia Debole 15 10 72 1016 10 E/SE 13
Oggi h: 13:50 coperto_pioggia Pioggia Debole 16 10 67 1017 10 E 11.1
Oggi h: 13:20 molto_nuvoloso Molto Nuvoloso 16 10 67 1016 10 E 9.3
Oggi h: 12:50 molto_nuvoloso Molto Nuvoloso 16 9 63 1016 10 E/SE 11.1
Oggi h: 12:20 molto_nuvoloso Molto Nuvoloso 16 9 63 1016 10 E 11.1
Oggi h: 11:50 nuvoloso Nuvoloso 16 9 63 1016 10 S/SE 13
Oggi h: 11:20 nuvoloso Nuvoloso 15 10 72 1016 10 S 14.8
Oggi h: 10:50 molto_nuvoloso Molto Nuvoloso 15 10 72 1016 10 S/SO 13
Oggi h: 10:20 molto_nuvoloso Molto Nuvoloso 14 10 76 1016 10 S/SO 14.8
Oggi h: 09:50 molto_nuvoloso Molto Nuvoloso 14 10 76 1016 10 O/SO 7.4
Oggi h: 09:20 nuvoloso Nuvoloso 14 10 76 1016 10 O/SO 11.1
Oggi h: 08:50 poco_nuvoloso Poco Nuvoloso 15 11 76 1016 10 S/SO 14.8
Oggi h: 08:20 poco_nuvoloso Poco Nuvoloso 13 11 87 1016 7 SO 11.1
Oggi h: 07:50 nuvoloso Nuvoloso 13 11 87 1017 6 SO 16.7
Oggi h: 07:20 poco_nuvoloso Poco Nuvoloso 13 10 81 1017 8 SO 13
Oggi h: 06:50 foschia Foschia 12 10 87 1016 5 O/SO 13
Oggi h: 06:20 foschia Foschia 11 10 93 1016 5 S/SO 13
Oggi h: 05:50 foschia Foschia 12 10 87 1016 5 NO 14.8
Oggi h: 05:20 molto_nuvoloso Molto Nuvoloso 12 10 87 1016 6 SO 9.3
Oggi h: 04:50 foschia Foschia 12 10 87 1016 5 O 9.3
Oggi h: 04:20 foschia Foschia 12 11 93 1016 5 NO 14.8
Oggi h: 03:20 foschia Foschia 12 11 93 1017 5 N 3.7
Oggi h: 03:50 foschia Foschia 12 12 100 1017 5 S 11.1
Oggi h: 03:20 foschia Foschia 11 10 93 1017 5 N 5.5
Oggi h: 01:50 foschia Foschia 12 11 93 1017 5 NE 7.4
Oggi h: 01:20 foschia Foschia 10 10 100 1017 5 N 3.7
Oggi h: 00:50 foschia Foschia 11 10 93 1017 5 N 3.7
Oggi h: 00:20 foschia Foschia 11 10 93 1016 5 N 9.3
Ieri h: 23:50 foschia Foschia 11 10 93 1017 5 N 11.1
Ieri h: 23:20 sereno Sereno 10 10 100 1017 7 N 9.3
Ieri h: 22:50 sereno Sereno 12 11 93 1017 10 SO 7.4
Ieri h: 22:20 sereno Sereno 11 11 100 1017 10 N 5.5
Ieri h: 21:50 sereno Sereno 13 11 87 1017 10 N 1.8
Ieri h: 21:20 sereno Sereno 14 12 87 1017 10 N 1.8
Ieri h: 20:50 sereno Sereno 14 12 87 1017 10 N 5.5
Ieri h: 20:20 sereno Sereno 13 11 87 1017 10 SE 9.3
Ieri h: 19:50 sereno Sereno 14 12 87 1017 10 E/SE 11.1
Ieri h: 19:20 sereno Sereno 14 11 82 1017 10 SE 11.1
Ieri h: 18:50 sereno Sereno 14 10 76 1017 10 E/SE 13
Ieri h: 18:20 sereno Sereno 16 10 67 1017 10 E/SE 11.1
Ieri h: 17:50 sereno Sereno 17 10 63 1017 10 E 9.3